Station: Milingimbi

  Atmospheric Gas Attenuation - ITU Rec 676-11   --------------- db/100km ---------------
Date Time Temp RH % AH g/m3 Dew Point Wind Direction Speed kph Gust kph Barometer mB Rainfall Since 9am 24GHz 47GHz 76GHz 122GHz 134GHz 241GHz
07 07:50 22.8 98 19.91 22.5 0 0 1012.6 0 43.2 42.9 83.9 222.1 246.1 854.6
07 07:40 22.2 98 19.24 21.9 0 0 1012.5 0 41.8 41.9 81.3 215.0 237.2 823.4
07 07:30 21.6 97 18.4 21.1 0 0 1012.2 0 40.0 40.5 77.7 205.6 225.5 782.7
07 07:20 21.1 97 17.87 20.6 0 0 1012.2 0 39.0 39.7 75.7 200.1 218.6 758.5
07 07:10 20.9 96 17.48 20.2 0 0 1012.1 0 38.1 39.0 74.0 195.6 213.0 739.0
07 07:00 20.8 96 17.38 20.1 0 0 1011.9 0 37.9 38.9 73.6 194.5 211.6 734.4
07 06:50 20.9 96 17.48 20.2 0 0 1012 0 38.1 39.0 74.0 195.5 212.9 739.0
07 06:40 21 96 17.58 20.3 0 0 1011.9 0 38.3 39.2 74.3 196.6 214.2 743.4
07 06:30 20.9 96 17.48 20.2 0 0 1011.7 0 38.1 39.0 73.9 195.5 212.9 738.8
07 06:20 20.9 96 17.48 20.2 0 0 1011.7 0 38.1 39.0 73.9 195.5 212.9 738.8
07 06:10 21.1 96 17.69 20.4 0 0 1011.5 0 38.6 39.3 74.7 197.6 215.6 748.3
07 06:00 21.1 96 17.69 20.4 0 0 1011.4 0 38.6 39.3 74.7 197.6 215.6 748.2
07 05:50 21.2 96 17.79 20.5 0 0 1011.5 0 38.8 39.5 75.1 198.7 216.9 752.8
07 05:40 21.1 96 17.69 20.4 0 0 1011.3 0 38.6 39.3 74.7 197.6 215.6 748.2
07 05:30 20.9 95 17.3 20.1 0 0 1011.1 0 37.8 38.6 73.0 193.1 210.0 728.7
07 05:20 21.3 96 17.89 20.6 0 0 1011.1 0 39.0 39.6 75.5 199.6 218.1 757.0
07 05:10 21.2 96 17.79 20.5 0 0 1011.1 0 38.8 39.4 75.1 198.6 216.8 752.5
07 04:50 21.3 96 17.89 20.6 0 0 1011 0 39.0 39.6 75.5 199.6 218.1 757.0
07 04:40 21.5 96 18.1 20.8 0 0 1010.8 0 39.4 39.9 76.3 201.8 220.8 766.4
07 04:30 21.4 96 18 20.7 0 0 1010.7 0 39.2 39.7 75.9 200.7 219.5 761.9
07 04:20 21.5 96 18.1 20.8 0 0 1010.8 0 39.4 39.9 76.3 201.8 220.8 766.4
07 04:10 21.7 96 18.31 21 0 0 1010.7 0 39.8 40.2 77.1 203.9 223.5 775.9
07 04:00 21.4 96 18 20.7 0 0 1010.6 0 39.2 39.7 75.9 200.7 219.5 761.8
07 03:50 21.4 95 17.81 20.6 0 0 1010.7 0 38.8 39.4 75.0 198.3 216.5 751.4
07 03:40 21.3 95 17.71 20.5 0 0 1010.8 0 38.6 39.2 74.6 197.3 215.2 747.0
07 03:30 21.4 95 17.81 20.6 0 0 1010.7 0 38.8 39.4 75.0 198.3 216.5 751.4
07 03:20 21.4 95 17.81 20.6 0 0 1010.8 0 38.8 39.4 75.0 198.3 216.5 751.5
07 03:10 21.5 95 17.91 20.7 0 0 1010.9 0 39.0 39.5 75.4 199.3 217.8 756.0
07 03:00 21.8 95 18.23 21 0 0 1010.8 0 39.7 40.0 76.6 202.6 222.0 770.5
07 02:50 21.6 95 18.02 20.8 0 0 1010.9 0 39.2 39.7 75.8 200.5 219.3 761.1
07 02:40 21.6 95 18.02 20.8 0 0 1011 0 39.2 39.7 75.8 200.5 219.3 761.1
07 02:30 21.8 95 18.23 21 0 0 1011 0 39.7 40.0 76.6 202.7 222.0 770.6
07 02:20 22 95 18.44 21.2 0 0 1011 0 40.1 40.3 77.4 204.8 224.7 780.1
07 02:10 21.9 95 18.33 21.1 0 0 1011.1 0 39.9 40.2 77.0 203.7 223.3 775.2
07 02:00 22.1 95 18.54 21.3 0 0 1011 0 40.3 40.5 77.8 205.9 226.0 784.6
07 01:50 22.1 95 18.54 21.3 0 0 1011.2 0 40.3 40.5 77.8 205.9 226.0 784.7
07 01:40 22.2 95 18.65 21.4 4 6 1011.3 0 40.5 40.6 78.3 207.1 227.5 789.8
07 01:30 21.9 94 18.14 20.9 6 6 1011.2 0 39.5 39.8 76.1 201.3 220.3 764.8
07 01:20 21.8 93 17.84 20.6 6 6 1011.4 0 38.8 39.3 74.8 197.7 215.9 749.4
07 01:10 21.9 93 17.94 20.7 4 6 1011.4 0 39.0 39.4 75.1 198.7 217.2 753.9
07 01:00 22 93 18.05 20.8 0 0 1011.5 0 39.3 39.6 75.6 199.9 218.6 759.0
07 00:50 22 93 18.05 20.8 0 0 1011.6 0 39.3 39.6 75.6 199.9 218.7 759.0
07 00:40 22.2 93 18.26 21 0 0 1011.6 0 39.7 39.9 76.4 202.1 221.4 768.5
07 00:30 22.5 93 18.57 21.3 0 0 1011.5 0 40.3 40.3 77.6 205.2 225.4 782.4
07 00:20 22.3 92 18.16 20.9 0 0 1011.7 0 39.5 39.7 75.8 200.5 219.5 762.0
07 00:10 22.2 90 17.67 20.5 0 0 1011.8 0 38.4 38.8 73.6 194.6 212.2 736.5
07 00:00 22.4 90 17.87 20.7 0 0 1011.8 0 38.8 39.1 74.3 196.6 214.7 745.3
06 23:50 22.5 90 17.98 20.8 0 0 1012 0 39.0 39.2 74.8 197.8 216.2 750.4
06 23:40 22.7 89 17.98 20.8 0 0 1011.9 0 39.0 39.1 74.6 197.2 215.6 748.3
06 23:30 22.8 88 17.88 20.7 0 0 1011.8 0 38.8 38.9 74.0 195.7 213.7 741.9
06 23:20 23 88 18.09 20.9 0 0 1012 0 39.2 39.2 74.8 197.8 216.4 751.4
06 23:10 23.3 88 18.4 21.2 0 4 1012 0 39.9 39.7 76.0 201.0 220.4 765.1
06 23:00 23.5 88 18.61 21.4 7 11 1011.9 0 40.3 40.0 76.8 203.1 223.0 774.4
06 22:50 23.4 87 18.29 21.1 6 7 1012 0 39.6 39.4 75.4 199.3 218.3 758.2
06 22:40 23.7 87 18.61 21.4 6 7 1012 0 40.3 39.9 76.6 202.6 222.4 772.4
06 22:30 23.7 86 18.39 21.2 6 7 1011.9 0 39.8 39.4 75.5 199.8 219.0 760.5
06 22:20 23.8 86 18.5 21.3 6 7 1012 0 40.0 39.6 76.0 200.9 220.4 765.4
06 22:10 23.9 85 18.39 21.2 4 6 1011.9 0 39.8 39.3 75.3 199.2 218.4 758.5
06 22:00 24 85 18.49 21.3 6 7 1011.7 0 40.0 39.5 75.7 200.2 219.6 762.7
06 21:50 24.2 84 18.48 21.3 6 7 1011.7 0 39.9 39.4 75.4 199.6 218.9 760.2
06 21:40 24.2 84 18.48 21.3 7 7 1011.7 0 39.9 39.4 75.4 199.6 218.9 760.2
06 21:30 24.3 83 18.37 21.2 6 9 1011.5 0 39.7 39.1 74.8 197.9 216.9 753.2
06 21:20 24.4 83 18.47 21.3 9 11 1011.6 0 39.9 39.3 75.2 198.9 218.1 757.6
06 21:10 24.5 83 18.58 21.4 7 9 1011.5 0 40.1 39.4 75.6 200.0 219.5 762.4
06 21:00 24.4 83 18.47 21.3 7 13 1011.3 0 39.9 39.2 75.2 198.8 218.1 757.4
06 20:50 24.4 83 18.47 21.3 6 7 1011.3 0 39.9 39.2 75.2 198.8 218.1 757.4
06 20:40 24.5 82 18.35 21.2 6 9 1011.3 0 39.6 39.0 74.5 197.1 216.0 750.0
06 20:30 24.6 82 18.46 21.3 7 13 1011.1 0 39.9 39.1 74.9 198.2 217.3 754.8
06 20:20 24.7 81 18.33 21.2 9 11 1011.1 0 39.6 38.8 74.2 196.3 215.1 746.9
06 20:10 24.6 81 18.23 21.1 7 11 1011 0 39.4 38.7 73.8 195.3 213.8 742.5
06 20:00 24.7 81 18.33 21.2 9 15 1010.8 0 39.6 38.8 74.2 196.2 215.0 746.7
06 19:50 24.7 80 18.11 21 7 11 1010.8 0 39.1 38.4 73.2 193.5 211.7 735.1
06 19:40 24.7 80 18.11 21 9 11 1010.7 0 39.1 38.4 73.2 193.5 211.7 735.0
06 19:30 24.8 80 18.21 21.1 9 15 1010.5 0 39.3 38.5 73.5 194.4 212.9 739.2
06 19:20 24.8 80 18.21 21.1 7 9 1010.5 0 39.3 38.5 73.5 194.4 212.9 739.2
06 19:10 24.8 80 18.21 21.1 11 15 1010.3 0 39.3 38.5 73.5 194.4 212.8 739.1
06 19:00 24.9 79 18.08 21 7 13 1010.1 0 39.0 38.2 72.8 192.5 210.5 731.2
06 18:50 25 78 17.96 20.9 9 11 1010.2 0 38.8 38.0 72.1 190.8 208.5 724.0
06 18:40 25.1 77 17.82 20.8 9 13 1010.1 0 38.5 37.7 71.4 188.8 206.1 715.7
06 18:30 25.2 75 17.46 20.5 9 15 1009.8 0 37.7 36.9 69.7 184.2 200.4 696.1
06 18:20 25.5 73 17.28 20.3 9 11 1009.9 0 37.3 36.5 68.6 181.3 197.0 684.2
06 18:10 25.8 72 17.33 20.4 13 15 1009.8 0 37.4 36.4 68.5 181.2 196.9 684.0
06 18:00 26 71 17.29 20.3 9 13 1009.7 0 37.3 36.3 68.2 180.3 195.8 680.1
06 17:50 26.2 70 17.23 20.3 9 15 1009.7 0 37.1 36.1 67.7 179.1 194.4 675.3
06 17:40 26.7 69 17.47 20.5 9 11 1009.7 0 37.6 36.3 68.3 180.7 196.6 683.0
06 17:30 27 66 16.99 20.1 11 20 1009.5 0 36.5 35.3 66.0 174.4 188.9 656.3
06 17:20 27.2 64 16.66 19.8 13 19 1009.5 0 35.8 34.7 64.4 170.2 183.8 638.4
06 17:10 27.2 64 16.66 19.8 15 19 1009.5 0 35.8 34.7 64.4 170.2 183.8 638.4
06 17:00 27.6 64 17.03 20.2 13 24 1009.4 0 36.6 35.1 65.6 173.5 188.0 653.2
06 16:50 27.4 63 16.58 19.7 17 22 1009.5 0 35.6 34.5 63.9 168.8 182.2 632.8
06 16:40 27.6 63 16.76 19.9 13 17 1009.4 0 36.0 34.7 64.5 170.4 184.2 639.9
06 16:30 27.8 61 16.41 19.8 15 24 1009.3 0 35.2 34.0 62.8 166.0 178.9 621.3
06 16:20 27.7 64 17.12 20.3 15 20 1009.4 0 36.7 35.3 65.9 174.3 189.0 656.7
06 16:10 28.2 62 17.05 20.2 13 17 1009.3 0 36.5 34.9 65.2 172.4 186.8 649.0
06 16:00 28.4 62 17.24 20.4 13 22 1009.2 0 36.9 35.2 65.8 174.1 189.0 656.6
06 15:50 29 57 16.37 19.6 13 19 1009.2 0 35.1 33.5 61.7 163.0 175.5 609.8
06 15:40 28.4 60 16.68 19.9 17 22 1009.2 0 35.8 34.2 63.4 167.7 181.2 629.4
06 15:30 29 59 16.95 20.2 13 20 1009.2 0 36.3 34.4 64.1 169.5 183.5 637.5
06 15:20 29.2 57 16.55 19.8 15 20 1009.4 0 35.4 33.7 62.3 164.6 177.5 616.9
06 15:10 29.1 58 16.75 20 17 22 1009.5 0 35.8 34.1 63.2 167.1 180.5 627.2

Last Refresh: 07-Aug-2020 08:08:04

Most of the information presented on this site is sourced from the Bureau of Meteorology.  Copyright in all material sourced from the Bureau of Meteorology resides with the Commonwealth of Australia.